sensor_id;sensor_type;location;lat;lon;timestamp;pressure;altitude;pressure_sealevel;temperature;humidity
57990;BME280;58373;51.824;5.564;2023-04-03T00:02:06;102933.88;;;2.61;82.49
57990;BME280;58373;51.824;5.564;2023-04-03T00:04:31;102941.56;;;2.61;82.15
57990;BME280;58373;51.824;5.564;2023-04-03T00:06:56;102948.38;;;2.62;82.15
57990;BME280;58373;51.824;5.564;2023-04-03T00:09:21;102942.44;;;2.60;82.12
57990;BME280;58373;51.824;5.564;2023-04-03T00:11:47;102951.88;;;2.58;81.88
57990;BME280;58373;51.824;5.564;2023-04-03T00:14:12;102948.47;;;2.56;82.01
57990;BME280;58373;51.824;5.564;2023-04-03T00:16:37;102947.59;;;2.56;81.35
57990;BME280;58373;51.824;5.564;2023-04-03T00:19:02;102947.66;;;2.53;81.70
57990;BME280;58373;51.824;5.564;2023-04-03T00:21:28;102947.66;;;2.51;82.51
57990;BME280;58373;51.824;5.564;2023-04-03T00:23:53;102955.34;;;2.51;81.82
57990;BME280;58373;51.824;5.564;2023-04-03T00:26:18;102951.13;;;2.49;81.55
57990;BME280;58373;51.824;5.564;2023-04-03T00:28:43;102953.72;;;2.47;81.67
57990;BME280;58373;51.824;5.564;2023-04-03T00:31:08;102957.13;;;2.46;81.53
57990;BME280;58373;51.824;5.564;2023-04-03T00:33:34;102952.06;;;2.43;82.00
57990;BME280;58373;51.824;5.564;2023-04-03T00:36:04;102954.66;;;2.40;81.97
57990;BME280;58373;51.824;5.564;2023-04-03T00:38:30;102960.69;;;2.36;82.09
57990;BME280;58373;51.824;5.564;2023-04-03T00:40:56;102953.03;;;2.36;81.93
57990;BME280;58373;51.824;5.564;2023-04-03T00:43:22;102953.91;;;2.32;82.26
57990;BME280;58373;51.824;5.564;2023-04-03T00:45:57;102969.31;;;2.29;81.89
57990;BME280;58373;51.824;5.564;2023-04-03T00:48:25;102965.06;;;2.28;81.95
57990;BME280;58373;51.824;5.564;2023-04-03T00:50:51;102969.31;;;2.29;81.66
57990;BME280;58373;51.824;5.564;2023-04-03T00:53:27;102966.78;;;2.27;82.21
57990;BME280;58373;51.824;5.564;2023-04-03T00:55:55;102968.50;;;2.25;82.15
57990;BME280;58373;51.824;5.564;2023-04-03T00:58:21;102966.81;;;2.23;82.38
57990;BME280;58373;51.824;5.564;2023-04-03T01:00:50;102979.69;;;2.20;82.72
57990;BME280;58373;51.824;5.564;2023-04-03T01:03:21;102978.84;;;2.19;82.35
57990;BME280;58373;51.824;5.564;2023-04-03T01:05:46;102979.69;;;2.17;81.76
57990;BME280;58373;51.824;5.564;2023-04-03T01:08:11;102974.59;;;2.17;82.53
57990;BME280;58373;51.824;5.564;2023-04-03T01:10:37;102978.00;;;2.19;82.21
57990;BME280;58373;51.824;5.564;2023-04-03T01:13:02;102985.69;;;2.16;82.63
57990;BME280;58373;51.824;5.564;2023-04-03T01:15:42;102986.56;;;2.15;82.15
57990;BME280;58373;51.824;5.564;2023-04-03T01:18:09;102980.59;;;2.14;82.28
57990;BME280;58373;51.824;5.564;2023-04-03T01:20:36;102987.44;;;2.12;82.31
57990;BME280;58373;51.824;5.564;2023-04-03T01:23:20;102986.59;;;2.11;82.21
57990;BME280;58373;51.824;5.564;2023-04-03T01:25:50;102982.31;;;2.12;82.03
57990;BME280;58373;51.824;5.564;2023-04-03T01:28:19;102979.75;;;2.13;81.91
57990;BME280;58373;51.824;5.564;2023-04-03T01:30:50;102977.22;;;2.10;82.42
57990;BME280;58373;51.824;5.564;2023-04-03T01:33:17;102978.09;;;2.09;82.08
57990;BME280;58373;51.824;5.564;2023-04-03T01:35:43;102980.66;;;2.09;82.23
57990;BME280;58373;51.824;5.564;2023-04-03T01:38:08;102984.94;;;2.07;82.95
57990;BME280;58373;51.824;5.564;2023-04-03T01:40:33;102986.66;;;2.05;82.45
57990;BME280;58373;51.824;5.564;2023-04-03T01:42:58;102978.16;;;2.03;82.05
57990;BME280;58373;51.824;5.564;2023-04-03T01:45:24;102986.72;;;2.02;82.44
57990;BME280;58373;51.824;5.564;2023-04-03T01:47:49;102983.28;;;2.00;82.56
57990;BME280;58373;51.824;5.564;2023-04-03T01:50:14;102978.19;;;2.00;82.39
57990;BME280;58373;51.824;5.564;2023-04-03T01:52:40;102983.34;;;1.97;83.14
57990;BME280;58373;51.824;5.564;2023-04-03T01:55:05;102973.09;;;1.97;83.25
57990;BME280;58373;51.824;5.564;2023-04-03T01:57:30;102982.50;;;1.97;82.37
57990;BME280;58373;51.824;5.564;2023-04-03T01:59:56;102976.53;;;1.96;82.94
57990;BME280;58373;51.824;5.564;2023-04-03T02:02:21;102978.28;;;1.91;83.15
57990;BME280;58373;51.824;5.564;2023-04-03T02:04:46;102981.69;;;1.93;83.26
57990;BME280;58373;51.824;5.564;2023-04-03T02:07:11;102980.84;;;1.91;83.83
57990;BME280;58373;51.824;5.564;2023-04-03T02:09:37;102990.22;;;1.92;83.85
57990;BME280;58373;51.824;5.564;2023-04-03T02:12:02;102985.94;;;1.94;84.00
57990;BME280;58373;51.824;5.564;2023-04-03T02:14:27;102988.47;;;1.94;83.29
57990;BME280;58373;51.824;5.564;2023-04-03T02:16:53;102992.81;;;1.89;83.96
57990;BME280;58373;51.824;5.564;2023-04-03T02:19:18;103005.59;;;1.89;84.07
57990;BME280;58373;51.824;5.564;2023-04-03T02:21:43;103002.19;;;1.90;83.77
57990;BME280;58373;51.824;5.564;2023-04-03T02:24:09;103002.25;;;1.84;83.75
57990;BME280;58373;51.824;5.564;2023-04-03T02:26:34;103008.25;;;1.81;83.98
57990;BME280;58373;51.824;5.564;2023-04-03T02:29:00;103004.00;;;1.79;84.74
57990;BME280;58373;51.824;5.564;2023-04-03T02:31:25;103010.84;;;1.77;84.24
57990;BME280;58373;51.824;5.564;2023-04-03T02:33:50;103005.78;;;1.74;84.73
57990;BME280;58373;51.824;5.564;2023-04-03T02:36:16;103007.47;;;1.72;85.58
57990;BME280;58373;51.824;5.564;2023-04-03T02:38:41;103016.00;;;1.71;85.16
57990;BME280;58373;51.824;5.564;2023-04-03T02:41:08;103000.66;;;1.71;84.71
57990;BME280;58373;51.824;5.564;2023-04-03T02:43:33;103002.41;;;1.69;85.10
57990;BME280;58373;51.824;5.564;2023-04-03T02:45:59;103002.41;;;1.66;84.79
57990;BME280;58373;51.824;5.564;2023-04-03T02:48:24;103005.84;;;1.65;85.38
57990;BME280;58373;51.824;5.564;2023-04-03T02:50:49;103009.25;;;1.67;84.98
57990;BME280;58373;51.824;5.564;2023-04-03T02:53:15;103001.63;;;1.59;85.21
57990;BME280;58373;51.824;5.564;2023-04-03T02:55:40;103007.59;;;1.59;85.89
57990;BME280;58373;51.824;5.564;2023-04-03T02:58:06;103014.44;;;1.54;85.80
57990;BME280;58373;51.824;5.564;2023-04-03T03:00:31;103017.03;;;1.56;85.83
57990;BME280;58373;51.824;5.564;2023-04-03T03:02:56;103011.91;;;1.54;85.79
57990;BME280;58373;51.824;5.564;2023-04-03T03:05:21;103004.22;;;1.54;85.30
57990;BME280;58373;51.824;5.564;2023-04-03T03:07:47;103007.69;;;1.50;85.87
57990;BME280;58373;51.824;5.564;2023-04-03T03:10:12;103023.84;;;1.54;85.87
57990;BME280;58373;51.824;5.564;2023-04-03T03:12:37;103009.38;;;1.51;85.89
57990;BME280;58373;51.824;5.564;2023-04-03T03:15:02;103014.50;;;1.48;85.48
57990;BME280;58373;51.824;5.564;2023-04-03T03:17:28;103016.25;;;1.43;86.79
57990;BME280;58373;51.824;5.564;2023-04-03T03:19:53;103025.63;;;1.43;86.06
57990;BME280;58373;51.824;5.564;2023-04-03T03:22:18;103017.97;;;1.44;86.37
57990;BME280;58373;51.824;5.564;2023-04-03T03:24:43;103022.25;;;1.41;86.56
57990;BME280;58373;51.824;5.564;2023-04-03T03:27:09;103018.84;;;1.37;86.59
57990;BME280;58373;51.824;5.564;2023-04-03T03:29:34;103023.16;;;1.35;87.14
57990;BME280;58373;51.824;5.564;2023-04-03T03:31:59;103028.25;;;1.35;86.66
57990;BME280;58373;51.824;5.564;2023-04-03T03:34:25;103024.88;;;1.33;87.22
57990;BME280;58373;51.824;5.564;2023-04-03T03:36:50;103033.41;;;1.33;86.88
57990;BME280;58373;51.824;5.564;2023-04-03T03:39:15;103034.25;;;1.32;87.29
57990;BME280;58373;51.824;5.564;2023-04-03T03:41:40;103029.16;;;1.32;87.02
57990;BME280;58373;51.824;5.564;2023-04-03T03:44:05;103035.09;;;1.33;86.63
57990;BME280;58373;51.824;5.564;2023-04-03T03:46:31;103037.66;;;1.30;86.87
57990;BME280;58373;51.824;5.564;2023-04-03T03:48:56;103035.13;;;1.30;87.54
57990;BME280;58373;51.824;5.564;2023-04-03T03:51:21;103043.66;;;1.29;87.49
57990;BME280;58373;51.824;5.564;2023-04-03T03:53:46;103040.22;;;1.30;87.62
57990;BME280;58373;51.824;5.564;2023-04-03T03:56:12;103043.66;;;1.26;87.21
57990;BME280;58373;51.824;5.564;2023-04-03T03:58:37;103048.81;;;1.23;87.20
57990;BME280;58373;51.824;5.564;2023-04-03T04:01:03;103042.00;;;1.22;87.85
57990;BME280;58373;51.824;5.564;2023-04-03T04:03:28;103046.25;;;1.23;88.16
57990;BME280;58373;51.824;5.564;2023-04-03T04:05:53;103047.13;;;1.22;87.86
57990;BME280;58373;51.824;5.564;2023-04-03T04:08:19;103050.50;;;1.24;87.90
57990;BME280;58373;51.824;5.564;2023-04-03T04:10:44;103047.06;;;1.25;87.46
57990;BME280;58373;51.824;5.564;2023-04-03T04:13:10;103048.81;;;1.23;87.94
57990;BME280;58373;51.824;5.564;2023-04-03T04:15:35;103043.69;;;1.24;87.68
57990;BME280;58373;51.824;5.564;2023-04-03T04:18:00;103059.00;;;1.24;87.62
57990;BME280;58373;51.824;5.564;2023-04-03T04:20:25;103055.59;;;1.24;87.98
57990;BME280;58373;51.824;5.564;2023-04-03T04:22:51;103059.84;;;1.25;87.18
57990;BME280;58373;51.824;5.564;2023-04-03T04:25:16;103048.81;;;1.23;88.04
57990;BME280;58373;51.824;5.564;2023-04-03T04:27:41;103051.38;;;1.23;87.67
57990;BME280;58373;51.824;5.564;2023-04-03T04:30:07;103055.66;;;1.21;87.35
57990;BME280;58373;51.824;5.564;2023-04-03T04:32:32;103053.94;;;1.20;87.22
57990;BME280;58373;51.824;5.564;2023-04-03T04:34:58;103061.59;;;1.20;87.77
57990;BME280;58373;51.824;5.564;2023-04-03T04:37:23;103055.66;;;1.18;88.32
57990;BME280;58373;51.824;5.564;2023-04-03T04:39:48;103053.97;;;1.14;88.22
57990;BME280;58373;51.824;5.564;2023-04-03T04:42:13;103059.09;;;1.14;88.28
57990;BME280;58373;51.824;5.564;2023-04-03T04:44:39;103061.66;;;1.11;88.35
57990;BME280;58373;51.824;5.564;2023-04-03T04:47:05;103066.78;;;1.11;88.12
57990;BME280;58373;51.824;5.564;2023-04-03T04:49:30;103066.81;;;1.09;88.76
57990;BME280;58373;51.824;5.564;2023-04-03T04:51:55;103067.66;;;1.06;88.50
57990;BME280;58373;51.824;5.564;2023-04-03T04:54:20;103065.09;;;1.06;88.25
57990;BME280;58373;51.824;5.564;2023-04-03T04:56:46;103067.66;;;1.06;88.37
57990;BME280;58373;51.824;5.564;2023-04-03T04:59:11;103069.38;;;1.04;88.38
57990;BME280;58373;51.824;5.564;2023-04-03T05:01:36;103069.38;;;1.01;88.58
57990;BME280;58373;51.824;5.564;2023-04-03T05:04:02;103072.78;;;1.00;88.79
57990;BME280;58373;51.824;5.564;2023-04-03T05:06:27;103068.56;;;0.95;88.56
57990;BME280;58373;51.824;5.564;2023-04-03T05:08:52;103074.53;;;0.98;88.77
57990;BME280;58373;51.824;5.564;2023-04-03T05:11:17;103076.22;;;0.96;88.90
57990;BME280;58373;51.824;5.564;2023-04-03T05:13:42;103082.19;;;0.95;88.19
57990;BME280;58373;51.824;5.564;2023-04-03T05:16:08;103081.38;;;0.93;88.64
57990;BME280;58373;51.824;5.564;2023-04-03T05:18:33;103088.16;;;0.91;88.44
57990;BME280;58373;51.824;5.564;2023-04-03T05:20:58;103089.88;;;0.89;88.39
57990;BME280;58373;51.824;5.564;2023-04-03T05:23:23;103083.09;;;0.88;88.81
57990;BME280;58373;51.824;5.564;2023-04-03T05:25:49;103083.09;;;0.88;88.44
57990;BME280;58373;51.824;5.564;2023-04-03T05:28:14;103089.03;;;0.90;88.27
57990;BME280;58373;51.824;5.564;2023-04-03T05:30:40;103080.50;;;0.91;87.99
57990;BME280;58373;51.824;5.564;2023-04-03T05:33:05;103084.81;;;0.86;88.11
57990;BME280;58373;51.824;5.564;2023-04-03T05:35:31;103090.78;;;0.82;88.51
57990;BME280;58373;51.824;5.564;2023-04-03T05:37:56;103089.91;;;0.80;88.49
57990;BME280;58373;51.824;5.564;2023-04-03T05:40:21;103095.91;;;0.81;88.24
57990;BME280;58373;51.824;5.564;2023-04-03T05:42:46;103100.16;;;0.77;88.81
57990;BME280;58373;51.824;5.564;2023-04-03T05:45:12;103109.53;;;0.78;88.53
57990;BME280;58373;51.824;5.564;2023-04-03T05:47:37;103109.50;;;0.79;89.00
57990;BME280;58373;51.824;5.564;2023-04-03T05:50:03;103106.13;;;0.81;88.54
57990;BME280;58373;51.824;5.564;2023-04-03T05:52:33;103105.25;;;0.80;88.94
57990;BME280;58373;51.824;5.564;2023-04-03T05:55:00;103103.56;;;0.82;88.68
57990;BME280;58373;51.824;5.564;2023-04-03T05:57:25;103118.88;;;0.82;88.66
57990;BME280;58373;51.824;5.564;2023-04-03T05:59:50;103115.44;;;0.85;88.82
57990;BME280;58373;51.824;5.564;2023-04-03T06:02:17;103124.81;;;0.87;88.63
57990;BME280;58373;51.824;5.564;2023-04-03T06:04:42;103121.41;;;0.93;88.21
57990;BME280;58373;51.824;5.564;2023-04-03T06:07:12;103123.13;;;0.88;88.89
57990;BME280;58373;51.824;5.564;2023-04-03T06:09:38;103120.53;;;0.89;88.52
57990;BME280;58373;51.824;5.564;2023-04-03T06:12:03;103126.50;;;0.91;88.51
57990;BME280;58373;51.824;5.564;2023-04-03T06:14:28;103128.16;;;1.00;88.19
57990;BME280;58373;51.824;5.564;2023-04-03T06:16:54;103134.16;;;0.94;88.86
57990;BME280;58373;51.824;5.564;2023-04-03T06:19:19;103123.88;;;1.02;88.02
57990;BME280;58373;51.824;5.564;2023-04-03T06:21:45;103128.97;;;1.06;88.02
57990;BME280;58373;51.824;5.564;2023-04-03T06:24:12;103134.13;;;1.03;87.85
57990;BME280;58373;51.824;5.564;2023-04-03T06:26:38;103136.69;;;1.03;88.06
57990;BME280;58373;51.824;5.564;2023-04-03T06:29:04;103134.91;;;1.09;87.94
57990;BME280;58373;51.824;5.564;2023-04-03T06:31:29;103139.13;;;1.19;87.24
57990;BME280;58373;51.824;5.564;2023-04-03T06:33:54;103131.53;;;1.11;88.19
57990;BME280;58373;51.824;5.564;2023-04-03T06:36:21;103135.78;;;1.11;87.96
57990;BME280;58373;51.824;5.564;2023-04-03T06:38:46;103122.09;;;1.18;87.93
57990;BME280;58373;51.824;5.564;2023-04-03T06:41:12;103132.34;;;1.18;87.49
57990;BME280;58373;51.824;5.564;2023-04-03T06:43:37;103134.88;;;1.19;87.13
57990;BME280;58373;51.824;5.564;2023-04-03T06:46:03;103144.25;;;1.22;87.15
57990;BME280;58373;51.824;5.564;2023-04-03T06:48:28;103149.31;;;1.28;87.16
57990;BME280;58373;51.824;5.564;2023-04-03T06:50:54;103140.78;;;1.29;85.95
57990;BME280;58373;51.824;5.564;2023-04-03T06:53:19;103145.03;;;1.30;86.61
57990;BME280;58373;51.824;5.564;2023-04-03T06:55:45;103149.28;;;1.34;86.68
57990;BME280;58373;51.824;5.564;2023-04-03T06:58:10;103152.63;;;1.42;86.95
57990;BME280;58373;51.824;5.564;2023-04-03T07:00:35;103154.31;;;1.49;85.92
57990;BME280;58373;51.824;5.564;2023-04-03T07:03:01;103157.69;;;1.53;85.85
57990;BME280;58373;51.824;5.564;2023-04-03T07:05:26;103161.06;;;1.58;86.05
57990;BME280;58373;51.824;5.564;2023-04-03T07:07:52;103155.09;;;1.59;86.34
57990;BME280;58373;51.824;5.564;2023-04-03T07:10:18;103164.44;;;1.65;85.86
57990;BME280;58373;51.824;5.564;2023-04-03T07:12:43;103165.28;;;1.68;85.41
57990;BME280;58373;51.824;5.564;2023-04-03T07:15:08;103160.97;;;1.75;85.98
57990;BME280;58373;51.824;5.564;2023-04-03T07:17:34;103166.00;;;1.85;84.82
57990;BME280;58373;51.824;5.564;2023-04-03T07:20:00;103158.34;;;1.81;84.80
57990;BME280;58373;51.824;5.564;2023-04-03T07:22:26;103171.06;;;1.89;84.87
57990;BME280;58373;51.824;5.564;2023-04-03T07:24:51;103174.47;;;1.92;84.17
57990;BME280;58373;51.824;5.564;2023-04-03T07:27:16;103171.03;;;1.95;83.73
57990;BME280;58373;51.824;5.564;2023-04-03T07:29:42;103176.97;;;1.98;83.63
57990;BME280;58373;51.824;5.564;2023-04-03T07:32:07;103184.59;;;2.04;83.39
57990;BME280;58373;51.824;5.564;2023-04-03T07:34:33;103189.72;;;2.04;82.65
57990;BME280;58373;51.824;5.564;2023-04-03T07:36:58;103188.00;;;2.06;82.14
57990;BME280;58373;51.824;5.564;2023-04-03T07:39:24;103177.75;;;2.09;81.35
57990;BME280;58373;51.824;5.564;2023-04-03T07:41:50;103185.41;;;2.11;82.16
57990;BME280;58373;51.824;5.564;2023-04-03T07:44:15;103187.94;;;2.16;82.00
57990;BME280;58373;51.824;5.564;2023-04-03T07:46:40;103181.00;;;2.27;81.97
57990;BME280;58373;51.824;5.564;2023-04-03T07:49:07;103189.50;;;2.29;81.83
57990;BME280;58373;51.824;5.564;2023-04-03T07:51:32;103186.03;;;2.34;81.06
57990;BME280;58373;51.824;5.564;2023-04-03T07:53:57;103183.47;;;2.37;80.63
57990;BME280;58373;51.824;5.564;2023-04-03T07:56:23;103187.75;;;2.34;80.77
57990;BME280;58373;51.824;5.564;2023-04-03T07:58:50;103192.81;;;2.40;80.98
57990;BME280;58373;51.824;5.564;2023-04-03T08:01:15;103183.41;;;2.44;79.98
57990;BME280;58373;51.824;5.564;2023-04-03T08:03:40;103196.19;;;2.45;79.30
57990;BME280;58373;51.824;5.564;2023-04-03T08:06:06;103196.13;;;2.51;79.63
57990;BME280;58373;51.824;5.564;2023-04-03T08:08:32;103190.13;;;2.55;77.97
57990;BME280;58373;51.824;5.564;2023-04-03T08:10:58;103198.53;;;2.68;78.75
57990;BME280;58373;51.824;5.564;2023-04-03T08:13:24;103191.63;;;2.73;78.40
57990;BME280;58373;51.824;5.564;2023-04-03T08:15:50;103196.69;;;2.79;78.17
57990;BME280;58373;51.824;5.564;2023-04-03T08:18:15;103194.13;;;2.82;78.30
57990;BME280;58373;51.824;5.564;2023-04-03T08:20:41;103205.97;;;2.91;76.92
57990;BME280;58373;51.824;5.564;2023-04-03T08:23:06;103193.16;;;2.92;77.06
57990;BME280;58373;51.824;5.564;2023-04-03T08:25:32;103193.91;;;2.99;77.66
57990;BME280;58373;51.824;5.564;2023-04-03T08:27:57;103199.84;;;3.04;78.06
57990;BME280;58373;51.824;5.564;2023-04-03T08:30:22;103195.47;;;3.12;76.48
57990;BME280;58373;51.824;5.564;2023-04-03T08:32:47;103201.41;;;3.14;74.86
57990;BME280;58373;51.824;5.564;2023-04-03T08:35:13;103200.59;;;3.12;71.09
57990;BME280;58373;51.824;5.564;2023-04-03T08:37:39;103197.16;;;3.13;71.62
57990;BME280;58373;51.824;5.564;2023-04-03T08:40:05;103203.88;;;3.20;67.94
57990;BME280;58373;51.824;5.564;2023-04-03T08:45:16;103209.56;;;3.45;70.21
57990;BME280;58373;51.824;5.564;2023-04-03T08:48:05;103219.72;;;3.53;68.41
57990;BME280;58373;51.824;5.564;2023-04-03T08:51:10;103218.00;;;3.54;66.87
57990;BME280;58373;51.824;5.564;2023-04-03T08:53:28;103209.31;;;3.64;67.44
57990;BME280;58373;51.824;5.564;2023-04-03T08:55:56;103213.44;;;3.72;64.51
57990;BME280;58373;51.824;5.564;2023-04-03T08:58:24;103207.34;;;3.81;66.09
57990;BME280;58373;51.824;5.564;2023-04-03T09:00:51;103218.06;;;4.06;65.03
57990;BME280;58373;51.824;5.564;2023-04-03T09:03:19;103223.28;;;4.03;62.36
57990;BME280;58373;51.824;5.564;2023-04-03T09:11:15;103231.69;;;4.11;59.60
57990;BME280;58373;51.824;5.564;2023-04-03T09:16:14;103226.41;;;4.20;58.41
57990;BME280;58373;51.824;5.564;2023-04-03T09:18:45;103225.47;;;4.26;60.42
57990;BME280;58373;51.824;5.564;2023-04-03T09:23:58;103236.47;;;4.33;57.10
57990;BME280;58373;51.824;5.564;2023-04-03T09:26:31;103226.09;;;4.39;58.27
57990;BME280;58373;51.824;5.564;2023-04-03T09:29:00;103229.06;;;4.64;55.67
57990;BME280;58373;51.824;5.564;2023-04-03T09:31:29;103226.72;;;4.53;55.20
57990;BME280;58373;51.824;5.564;2023-04-03T09:34:02;103212.03;;;4.58;55.07
57990;BME280;58373;51.824;5.564;2023-04-03T09:36:38;103216.97;;;4.70;53.40
57990;BME280;58373;51.824;5.564;2023-04-03T09:39:05;103210.00;;;4.75;53.83
57990;BME280;58373;51.824;5.564;2023-04-03T09:41:30;103206.25;;;4.92;53.21
57990;BME280;58373;51.824;5.564;2023-04-03T09:43:58;103209.69;;;4.94;50.40
57990;BME280;58373;51.824;5.564;2023-04-03T09:46:32;103201.19;;;4.89;53.00
57990;BME280;58373;51.824;5.564;2023-04-03T09:48:59;103207.91;;;4.96;51.10
57990;BME280;58373;51.824;5.564;2023-04-03T09:51:25;103191.59;;;4.97;49.93
57990;BME280;58373;51.824;5.564;2023-04-03T09:53:52;103211.25;;;5.01;50.27
57990;BME280;58373;51.824;5.564;2023-04-03T09:59:24;103205.03;;;5.11;49.26
57990;BME280;58373;51.824;5.564;2023-04-03T10:01:32;103201.44;;;5.18;48.45
57990;BME280;58373;51.824;5.564;2023-04-03T10:06:56;103198.63;;;5.30;47.77
57990;BME280;58373;51.824;5.564;2023-04-03T10:09:31;103181.41;;;5.32;47.24
57990;BME280;58373;51.824;5.564;2023-04-03T10:14:21;103189.47;;;5.56;43.52
57990;BME280;58373;51.824;5.564;2023-04-03T10:16:48;103179.06;;;5.62;44.83
57990;BME280;58373;51.824;5.564;2023-04-03T10:20:00;103177.44;;;5.58;44.33
57990;BME280;58373;51.824;5.564;2023-04-03T10:22:15;103173.75;;;5.68;44.51
57990;BME280;58373;51.824;5.564;2023-04-03T10:35:46;103158.50;;;5.96;42.36
57990;BME280;58373;51.824;5.564;2023-04-03T10:38:30;103155.50;;;6.13;42.15
57990;BME280;58373;51.824;5.564;2023-04-03T10:41:02;103156.44;;;6.10;41.21
57990;BME280;58373;51.824;5.564;2023-04-03T10:46:09;103151.50;;;6.03;42.15
57990;BME280;58373;51.824;5.564;2023-04-03T10:53:44;103149.78;;;6.34;39.45
57990;BME280;58373;51.824;5.564;2023-04-03T11:01:07;103128.84;;;6.47;42.64
57990;BME280;58373;51.824;5.564;2023-04-03T11:03:41;103133.59;;;6.62;41.10
57990;BME280;58373;51.824;5.564;2023-04-03T11:06:09;103114.81;;;6.57;40.12
57990;BME280;58373;51.824;5.564;2023-04-03T11:11:00;103116.31;;;6.65;39.91
57990;BME280;58373;51.824;5.564;2023-04-03T11:15:53;103112.00;;;6.64;41.55
57990;BME280;58373;51.824;5.564;2023-04-03T11:21:04;103127.09;;;6.78;41.11
57990;BME280;58373;51.824;5.564;2023-04-03T11:23:33;103133.75;;;6.85;42.33
57990;BME280;58373;51.824;5.564;2023-04-03T11:26:10;103127.63;;;6.89;42.51
57990;BME280;58373;51.824;5.564;2023-04-03T11:28:36;103124.16;;;6.90;41.94
57990;BME280;58373;51.824;5.564;2023-04-03T11:31:45;103122.38;;;6.92;41.20
57990;BME280;58373;51.824;5.564;2023-04-03T11:36:33;103118.91;;;6.93;43.14
57990;BME280;58373;51.824;5.564;2023-04-03T11:39:00;103109.16;;;7.03;41.90
57990;BME280;58373;51.824;5.564;2023-04-03T11:41:31;103100.97;;;7.18;41.92
57990;BME280;58373;51.824;5.564;2023-04-03T11:44:00;103094.25;;;7.13;41.38
57990;BME280;58373;51.824;5.564;2023-04-03T11:47:09;103090.13;;;7.07;42.75
57990;BME280;58373;51.824;5.564;2023-04-03T11:52:00;103109.44;;;7.22;42.33
57990;BME280;58373;51.824;5.564;2023-04-03T11:54:35;103111.50;;;7.11;42.86
57990;BME280;58373;51.824;5.564;2023-04-03T11:57:10;103106.06;;;7.20;44.16
57990;BME280;58373;51.824;5.564;2023-04-03T11:59:45;103095.75;;;7.20;44.13
57990;BME280;58373;51.824;5.564;2023-04-03T12:10:42;103093.63;;;7.59;41.26
57990;BME280;58373;51.824;5.564;2023-04-03T12:13:13;103089.09;;;7.66;42.53
57990;BME280;58373;51.824;5.564;2023-04-03T12:20:53;103080.38;;;7.70;42.81
57990;BME280;58373;51.824;5.564;2023-04-03T12:23:28;103070.34;;;7.61;42.53
57990;BME280;58373;51.824;5.564;2023-04-03T12:26:38;103064.25;;;7.62;43.06
57990;BME280;58373;51.824;5.564;2023-04-03T12:28:44;103063.19;;;7.69;41.62
57990;BME280;58373;51.824;5.564;2023-04-03T12:31:11;103073.56;;;7.67;41.11
57990;BME280;58373;51.824;5.564;2023-04-03T12:33:51;103066.34;;;7.52;41.06
57990;BME280;58373;51.824;5.564;2023-04-03T12:36:47;103051.69;;;7.53;42.42
57990;BME280;58373;51.824;5.564;2023-04-03T12:39:14;103069.06;;;7.48;41.08
57990;BME280;58373;51.824;5.564;2023-04-03T12:41:50;103057.75;;;7.52;44.01
57990;BME280;58373;51.824;5.564;2023-04-03T12:44:38;103062.53;;;7.62;41.46
57990;BME280;58373;51.824;5.564;2023-04-03T12:47:16;103058.41;;;7.57;42.52
57990;BME280;58373;51.824;5.564;2023-04-03T12:49:46;103049.78;;;7.58;42.14
57990;BME280;58373;51.824;5.564;2023-04-03T12:52:24;103049.78;;;7.58;44.12
57990;BME280;58373;51.824;5.564;2023-04-03T12:54:52;103052.16;;;7.64;45.21
57990;BME280;58373;51.824;5.564;2023-04-03T12:57:18;103048.69;;;7.65;43.11
57990;BME280;58373;51.824;5.564;2023-04-03T12:59:44;103041.03;;;7.62;42.11
57990;BME280;58373;51.824;5.564;2023-04-03T13:02:30;103044.22;;;7.70;42.37
57990;BME280;58373;51.824;5.564;2023-04-03T13:04:58;103042.41;;;7.72;41.31
57990;BME280;58373;51.824;5.564;2023-04-03T13:07:29;103032.50;;;7.60;42.68
57990;BME280;58373;51.824;5.564;2023-04-03T13:10:18;103017.75;;;7.63;43.56
57990;BME280;58373;51.824;5.564;2023-04-03T13:15:16;103019.19;;;7.95;43.67
57990;BME280;58373;51.824;5.564;2023-04-03T13:17:42;103021.09;;;7.90;41.67
57990;BME280;58373;51.824;5.564;2023-04-03T13:20:12;103034.81;;;7.92;42.77
57990;BME280;58373;51.824;5.564;2023-04-03T13:22:45;103024.50;;;7.92;41.37
57990;BME280;58373;51.824;5.564;2023-04-03T13:25:13;103013.47;;;7.87;41.66
57990;BME280;58373;51.824;5.564;2023-04-03T13:27:40;103014.38;;;7.86;42.18
57990;BME280;58373;51.824;5.564;2023-04-03T13:30:17;103012.66;;;7.85;41.56
57990;BME280;58373;51.824;5.564;2023-04-03T13:32:45;103014.38;;;7.86;42.19
57990;BME280;58373;51.824;5.564;2023-04-03T13:35:30;103002.31;;;7.85;43.06
57990;BME280;58373;51.824;5.564;2023-04-03T13:37:57;103012.84;;;7.81;43.13
57990;BME280;58373;51.824;5.564;2023-04-03T13:40:22;102997.50;;;7.76;45.00
57990;BME280;58373;51.824;5.564;2023-04-03T13:42:57;102995.59;;;7.81;42.88
57990;BME280;58373;51.824;5.564;2023-04-03T13:47:49;102992.75;;;7.89;43.50
57990;BME280;58373;51.824;5.564;2023-04-03T13:52:42;102996.97;;;7.91;42.29
57990;BME280;58373;51.824;5.564;2023-04-03T13:55:28;103000.66;;;7.84;42.10
57990;BME280;58373;51.824;5.564;2023-04-03T13:57:58;102991.16;;;7.85;43.13
57990;BME280;58373;51.824;5.564;2023-04-03T14:02:54;102979.59;;;7.95;43.43
57990;BME280;58373;51.824;5.564;2023-04-03T14:05:21;102988.19;;;7.95;42.78
57990;BME280;58373;51.824;5.564;2023-04-03T14:07:48;103001.25;;;7.91;44.65
57990;BME280;58373;51.824;5.564;2023-04-03T14:10:13;102993.72;;;7.86;42.00
57990;BME280;58373;51.824;5.564;2023-04-03T14:12:38;102985.06;;;7.87;43.55
57990;BME280;58373;51.824;5.564;2023-04-03T14:15:10;102986.72;;;7.88;41.77
57990;BME280;58373;51.824;5.564;2023-04-03T14:17:40;102979.25;;;7.81;43.40
57990;BME280;58373;51.824;5.564;2023-04-03T14:20:05;102975.66;;;7.85;44.61
57990;BME280;58373;51.824;5.564;2023-04-03T14:22:32;102981.56;;;7.88;43.49
57990;BME280;58373;51.824;5.564;2023-04-03T14:24:57;102995.03;;;7.96;42.80